Terminal Aerodrome Forecast
Issued by NWS

Home | Current Version | Previous Version | Text Only | Print | Product List | Glossary On
Versions: 1 2 3 4 5 6 7 8 9 10 11 12 13 14 15 16 17 18
424
FTAK31 PAJN 080032 AAA
TAFAGY
TAF AMD
PAGY 080032Z 0801/0824 02008KT 1SM -SN OVC035
      TEMPO 0801/0805 VRB06KT 4SM -SN OVC050
     FM080600 03015G25KT 4SM -SN BKN025 OVC060
     FM081000 03015G25KT 6SM -SHSN SCT020 BKN035 OVC060
     FM081500 03015G25KT P6SM SCT020 OVC035
      AMD LTD TO CLD VIS AND WIND=

USA.gov is the U.S. government's official web portal to all federal, state and local government web resources and services.